Time;durP1;ratioP1;P1;durP2;ratioP2;P2;SDS_P1;SDS_P2;PMS_P1;PMS_P2;Temp;Humidity;BMP_temperature;BMP_pressure;BME280_temperature;BME280_humidity;BME280_pressure;Samples;Min_cycle;Max_cycle;Signal;HPM_P1;HPM_P2
2023/01/05 00:01:38;;;;;;;;;0.00;0.00;;;;;14.97;79.92;101996.69;4967997;28;45342;-84
2023/01/05 00:04:04;;;;;;;;;0.00;0.00;;;;;14.84;79.79;101973.78;4964945;28;45651;-85
2023/01/05 00:06:30;;;;;;;;;1.00;0.00;;;;;14.79;79.71;101969.41;4963571;28;47074;-84
2023/01/05 00:08:57;;;;;;;;;0.00;0.00;;;;;14.84;79.81;101979.16;4962218;28;45497;-84
2023/01/05 00:22:38;;;;;;;;;0.00;0.00;;;;;15.10;79.69;102013.28;4965931;28;45391;-84
2023/01/05 00:25:15;;;;;;;;;0.00;0.00;;;;;15.07;79.58;102014.28;4968437;28;45250;-84
2023/01/05 00:27:42;;;;;;;;;0.00;0.00;;;;;14.98;79.50;101999.31;4967544;28;47485;-84
2023/01/05 00:30:09;;;;;;;;;0.00;0.00;;;;;15.09;79.84;102019.63;4966766;28;45301;-84
2023/01/05 00:32:34;;;;;;;;;1.00;0.00;;;;;14.98;79.53;101998.44;4983137;28;45298;-84
2023/01/05 00:35:01;;;;;;;;;0.00;0.00;;;;;14.70;79.69;101953.59;4967586;28;45474;-84
2023/01/05 00:37:30;;;;;;;;;0.00;0.00;;;;;14.95;79.68;102003.88;4965540;28;47568;-84
2023/01/05 00:39:55;;;;;;;;;0.00;0.00;;;;;14.85;79.97;101980.91;4965552;28;45261;-84
2023/01/05 00:42:21;;;;;;;;;1.00;0.00;;;;;15.02;79.76;102013.56;4967216;28;45605;-84
2023/01/05 00:44:47;;;;;;;;;0.00;0.00;;;;;14.84;79.95;101981.84;4968396;28;45587;-84
2023/01/05 00:47:12;;;;;;;;;0.00;0.00;;;;;14.69;79.86;101942.88;4969298;28;46222;-84
2023/01/05 00:49:38;;;;;;;;;0.00;0.00;;;;;14.82;79.70;101979.22;4974089;28;45763;-84
2023/01/05 00:52:04;;;;;;;;;0.00;0.00;;;;;14.75;79.76;101965.06;4966746;28;45432;-84
2023/01/05 00:54:29;;;;;;;;;0.75;0.00;;;;;14.95;79.57;101999.41;4968287;28;45567;-84
2023/01/05 00:56:55;;;;;;;;;0.00;0.00;;;;;14.76;79.31;101972.19;4967435;28;46396;-84
2023/01/05 00:59:20;;;;;;;;;1.00;0.00;;;;;14.86;79.59;101997.00;4967002;28;45148;-84
2023/01/05 01:01:47;;;;;;;;;0.00;0.00;;;;;14.86;79.71;101999.69;4975981;28;45387;-84
2023/01/05 01:04:13;;;;;;;;;0.00;0.00;;;;;15.04;79.56;102027.81;4967348;28;45166;-84
2023/01/05 01:06:38;;;;;;;;;0.00;0.00;;;;;14.78;79.34;101983.81;4964893;28;47930;-84
2023/01/05 01:09:04;;;;;;;;;0.00;0.00;;;;;14.76;79.27;101969.50;4968378;28;45407;-84
2023/01/05 01:11:30;;;;;;;;;0.00;0.00;;;;;14.97;79.44;102008.31;4979760;28;45433;-84
2023/01/05 01:13:55;;;;;;;;;0.00;0.00;;;;;14.80;79.17;101976.56;4967878;28;44838;-84
2023/01/05 01:16:22;;;;;;;;;0.00;0.00;;;;;14.80;79.47;101981.94;4966980;28;46896;-84
2023/01/05 01:18:48;;;;;;;;;0.00;0.00;;;;;14.80;79.30;101979.25;4973250;28;45261;-84
2023/01/05 01:21:13;;;;;;;;;0.00;0.00;;;;;14.75;79.43;101965.06;5002293;28;45319;-84
2023/01/05 01:23:39;;;;;;;;;0.50;0.00;;;;;14.88;79.42;101981.69;4956035;28;45254;-84
2023/01/05 01:26:06;;;;;;;;;0.00;0.00;;;;;14.71;79.14;101949.97;4967016;28;47778;-84
2023/01/05 01:28:32;;;;;;;;;0.00;0.00;;;;;15.04;78.88;102006.31;4967417;28;45499;-84
2023/01/05 01:30:58;;;;;;;;;0.00;0.00;;;;;15.05;78.72;102005.41;4965596;28;45220;-84
2023/01/05 01:33:23;;;;;;;;;0.00;0.00;;;;;14.80;78.87;101971.19;4969140;28;45181;-84
2023/01/05 01:35:49;;;;;;;;;0.00;0.00;;;;;14.82;78.49;101971.16;4966617;28;45205;-83
2023/01/05 01:38:14;;;;;;;;;0.00;0.00;;;;;14.89;78.26;101977.22;4965754;28;45386;-84
2023/01/05 01:40:41;;;;;;;;;1.00;0.00;;;;;14.78;78.60;101962.31;4969410;28;45843;-84
2023/01/05 01:43:18;;;;;;;;;0.00;0.00;;;;;14.76;77.73;101960.56;4962633;28;45470;-84
2023/01/05 01:45:44;;;;;;;;;0.00;0.00;;;;;15.08;77.92;102018.72;4963019;28;46332;-84
2023/01/05 01:48:16;;;;;;;;;0.50;0.00;;;;;14.77;77.96;101965.03;4961184;28;45397;-84
2023/01/05 01:50:50;;;;;;;;;0.50;0.00;;;;;14.81;77.73;101982.81;4976846;28;45353;-84
2023/01/05 01:53:22;;;;;;;;;1.00;0.00;;;;;15.05;77.86;102034.97;4965467;28;45253;-84
2023/01/05 01:55:51;;;;;;;;;0.50;0.00;;;;;14.84;77.71;101993.47;4964143;28;46993;-84
2023/01/05 01:58:19;;;;;;;;;0.00;0.00;;;;;15.00;77.73;102018.97;4963912;28;45739;-84
2023/01/05 02:00:45;;;;;;;;;0.00;0.00;;;;;14.87;77.65;102004.16;4970499;28;45285;-84
2023/01/05 02:03:11;;;;;;;;;1.50;0.50;;;;;14.82;77.82;102001.59;4969951;28;45296;-84
2023/01/05 02:05:37;;;;;;;;;0.00;0.00;;;;;14.71;77.64;101970.59;4970669;28;47038;-84
2023/01/05 02:08:09;;;;;;;;;0.00;0.00;;;;;14.75;77.91;101978.53;4970149;28;45246;-84
2023/01/05 02:10:34;;;;;;;;;0.00;0.00;;;;;15.04;77.94;102024.25;4979215;28;45289;-84
2023/01/05 02:13:32;;;;;;;;;0.50;0.00;;;;;14.78;78.06;101988.28;4974313;28;45444;-84
2023/01/05 02:16:02;;;;;;;;;0.00;0.00;;;;;14.89;78.26;102001.41;4968996;28;47749;-84
2023/01/05 02:18:46;;;;;;;;;0.00;0.00;;;;;15.04;78.17;102035.91;4963297;28;45543;-84
2023/01/05 02:21:28;;;;;;;;;0.00;0.00;;;;;14.98;78.40;102019.94;5004602;28;45385;-85
2023/01/05 02:23:59;;;;;;;;;1.00;0.00;;;;;15.05;78.24;102026.91;4977245;28;45280;-85
2023/01/05 02:26:25;;;;;;;;;0.00;0.00;;;;;15.06;78.20;102030.47;4970138;28;45613;-85
2023/01/05 02:29:15;;;;;;;;;0.00;0.00;;;;;15.04;78.36;102035.91;4970124;28;45609;-85
2023/01/05 02:32:09;;;;;;;;;0.25;0.00;;;;;14.99;78.05;102027.97;4979591;28;45449;-84
2023/01/05 02:35:03;;;;;;;;;0.25;0.00;;;;;15.05;78.18;102037.66;4957563;28;45336;-85
2023/01/05 02:37:50;;;;;;;;;1.75;0.00;;;;;14.99;78.20;102035.16;4969520;28;48114;-85
2023/01/05 02:40:31;;;;;;;;;0.75;0.00;;;;;14.93;77.85;102027.25;4975730;28;45344;-85
2023/01/05 02:42:59;;;;;;;;;0.00;0.00;;;;;14.84;77.90;102014.13;4962617;28;45281;-84
2023/01/05 02:45:25;;;;;;;;;0.00;0.00;;;;;14.85;77.47;102022.13;4970364;28;45386;-85
2023/01/05 02:47:50;;;;;;;;;0.00;0.00;;;;;14.87;77.49;102030.13;4967901;28;47551;-85
2023/01/05 02:50:37;;;;;;;;;0.00;0.00;;;;;14.89;76.81;102039.06;4973471;28;45388;-85
2023/01/05 02:53:06;;;;;;;;;2.00;0.00;;;;;14.82;76.58;102031.16;4975241;28;45502;-85
2023/01/05 02:55:45;;;;;;;;;0.50;0.50;;;;;14.56;76.18;101979.94;4968759;28;45427;-85
2023/01/05 02:58:30;;;;;;;;;1.00;0.00;;;;;14.69;75.98;102010.06;4967634;28;47137;-85
2023/01/05 03:01:13;;;;;;;;;2.00;0.00;;;;;14.90;75.87;102036.31;4958621;28;45552;-85
2023/01/05 03:03:51;;;;;;;;;0.25;0.00;;;;;14.74;75.91;102010.81;4969889;28;45337;-85
2023/01/05 03:06:27;;;;;;;;;1.00;0.00;;;;;14.51;75.35;101971.16;4969043;28;45374;-85
2023/01/05 03:08:57;;;;;;;;;0.00;0.00;;;;;14.83;75.05;102032.03;4956842;28;47073;-85
2023/01/05 03:14:18;;;;;;;;;0.00;0.00;;;;;14.46;75.18;101973.97;4968202;28;45367;-85
2023/01/05 03:16:46;;;;;;;;;3.00;0.00;;;;;14.55;75.12;101995.19;4967792;28;45457;-85
2023/01/05 03:36:22;;;;;;;;;0.75;0.75;;;;;14.65;75.09;102003.91;4967778;28;44720;-85
2023/01/05 03:38:52;;;;;;;;;1.00;1.00;;;;;14.50;75.05;101985.50;4970547;28;45172;-85
2023/01/05 03:41:22;;;;;;;;;0.50;0.00;;;;;14.65;74.91;101995.84;4966960;28;47491;-85
2023/01/05 03:43:48;;;;;;;;;1.00;0.00;;;;;14.73;75.06;102020.66;4964189;28;46073;-85
2023/01/05 03:46:18;;;;;;;;;0.00;0.00;;;;;14.68;75.04;102022.59;4982185;28;45305;-85
2023/01/05 03:48:44;;;;;;;;;1.00;0.00;;;;;14.56;75.21;102002.31;4967132;28;45194;-85
2023/01/05 03:51:09;;;;;;;;;1.00;0.00;;;;;14.68;75.03;102024.41;4965999;28;46396;-85
2023/01/05 03:53:35;;;;;;;;;1.00;0.00;;;;;14.75;75.13;102044.81;4963315;28;45358;-85
2023/01/05 03:56:00;;;;;;;;;0.25;0.00;;;;;14.57;75.21;102009.47;4963972;28;45386;-85
2023/01/05 03:58:25;;;;;;;;;2.00;1.00;;;;;14.84;75.08;102046.38;4964626;28;45401;-85
2023/01/05 04:00:51;;;;;;;;;0.00;0.00;;;;;14.63;75.27;102016.47;4963837;28;45252;-85
2023/01/05 04:03:16;;;;;;;;;0.00;0.00;;;;;14.62;75.10;102022.81;4964916;28;45271;-84
2023/01/05 04:05:42;;;;;;;;;3.75;1.00;;;;;14.55;75.38;102016.69;4964299;28;45280;-84
2023/01/05 04:08:07;;;;;;;;;0.25;0.25;;;;;14.69;75.26;102037.81;4963427;28;46219;-84
2023/01/05 04:10:33;;;;;;;;;1.00;0.75;;;;;14.49;75.31;102007.94;4977262;28;47367;-84
2023/01/05 04:12:58;;;;;;;;;1.00;0.00;;;;;14.54;75.16;102006.00;4970045;28;45536;-84
2023/01/05 04:15:24;;;;;;;;;0.00;0.00;;;;;14.72;75.27;102037.72;4966308;28;45355;-84
2023/01/05 04:17:49;;;;;;;;;0.75;0.00;;;;;14.49;75.23;101994.50;4963883;28;45434;-84
2023/01/05 04:20:17;;;;;;;;;0.00;0.00;;;;;14.50;75.47;101993.56;4969888;28;47747;-85
2023/01/05 04:22:42;;;;;;;;;1.00;0.25;;;;;14.70;75.53;102030.63;4965913;28;44782;-85
2023/01/05 04:25:10;;;;;;;;;0.00;0.00;;;;;14.62;75.35;102015.63;4968722;28;45222;-85
2023/01/05 04:27:36;;;;;;;;;0.00;0.00;;;;;14.61;75.33;102027.28;4968922;28;46151;-85
2023/01/05 04:30:01;;;;;;;;;0.00;0.00;;;;;14.49;75.30;101994.50;4968574;28;45499;-85
2023/01/05 04:32:27;;;;;;;;;0.25;0.00;;;;;14.69;75.46;102027.06;4973115;28;45796;-85
2023/01/05 04:34:52;;;;;;;;;0.50;0.50;;;;;14.54;75.55;102001.47;4970171;28;45229;-84
2023/01/05 04:37:18;;;;;;;;;2.00;0.75;;;;;14.49;75.40;101991.81;4967577;28;45369;-84
2023/01/05 04:39:43;;;;;;;;;0.00;0.00;;;;;14.68;75.41;102024.41;4968757;28;47021;-85
2023/01/05 04:42:08;;;;;;;;;1.00;0.00;;;;;14.57;75.35;102017.53;4974666;28;45246;-85
2023/01/05 04:44:36;;;;;;;;;0.75;0.00;;;;;14.54;75.51;102008.69;4967688;28;45294;-85
2023/01/05 04:47:01;;;;;;;;;0.00;0.00;;;;;14.44;75.43;102000.88;4968175;28;45207;-85
2023/01/05 04:49:27;;;;;;;;;0.00;0.00;;;;;14.76;75.47;102054.66;4963915;28;48423;-85
2023/01/05 04:51:52;;;;;;;;;0.50;0.00;;;;;14.57;75.82;102022.91;4962662;28;45185;-84
2023/01/05 04:54:18;;;;;;;;;3.00;0.00;;;;;14.53;75.52;102005.09;4963825;28;45939;-85
2023/01/05 04:56:43;;;;;;;;;0.00;0.00;;;;;14.67;75.65;102028.94;4962395;28;45444;-85
2023/01/05 04:59:09;;;;;;;;;0.00;0.00;;;;;14.62;75.57;102017.44;4962214;28;47142;-85
2023/01/05 05:01:34;;;;;;;;;0.00;0.00;;;;;14.43;75.53;101991.06;4961570;28;45348;-85
2023/01/05 05:04:00;;;;;;;;;1.75;0.00;;;;;14.58;75.58;102007.66;4965316;28;45470;-85
2023/01/05 05:06:25;;;;;;;;;1.00;0.00;;;;;14.73;75.47;102035.91;4966728;28;45466;-85
2023/01/05 05:08:51;;;;;;;;;0.00;0.00;;;;;14.54;75.62;102006.00;4968050;28;45629;-85
2023/01/05 05:11:16;;;;;;;;;0.00;0.00;;;;;14.82;75.52;102051.78;4984860;28;45960;-85
2023/01/05 05:13:42;;;;;;;;;0.25;0.00;;;;;14.52;75.51;101989.03;4968191;28;45142;-85
2023/01/05 05:16:07;;;;;;;;;1.00;0.00;;;;;14.70;75.64;102025.25;4967205;28;45420;-85
2023/01/05 05:18:33;;;;;;;;;0.00;0.00;;;;;14.57;75.69;101996.03;4970171;28;48629;-85
2023/01/05 05:20:58;;;;;;;;;0.25;0.00;;;;;14.59;75.76;102004.94;4974972;28;45317;-85
2023/01/05 05:23:23;;;;;;;;;0.00;0.00;;;;;14.49;75.91;101984.63;4967442;28;45354;-85
2023/01/05 05:25:53;;;;;;;;;0.00;0.00;;;;;14.49;76.04;101984.63;4967502;28;44715;-85
2023/01/05 05:28:19;;;;;;;;;0.00;0.00;;;;;14.54;75.74;101996.13;4966706;28;47854;-85
2023/01/05 05:30:44;;;;;;;;;2.50;0.00;;;;;14.70;75.77;102034.22;4967308;28;45277;-85
2023/01/05 05:33:10;;;;;;;;;0.00;0.00;;;;;14.79;75.77;102041.13;4968343;28;45316;-85
2023/01/05 05:35:35;;;;;;;;;0.00;0.00;;;;;14.49;75.81;101999.88;4967581;28;44829;-85
2023/01/05 05:38:01;;;;;;;;;0.00;0.00;;;;;14.41;75.92;101982.13;4967098;28;47237;-85
2023/01/05 05:40:27;;;;;;;;;1.00;0.00;;;;;14.40;75.93;101983.09;4974093;28;45222;-85
2023/01/05 05:42:53;;;;;;;;;0.00;0.00;;;;;14.41;75.98;101992.00;4966511;28;44730;-84
2023/01/05 05:45:18;;;;;;;;;1.00;0.00;;;;;14.41;75.92;101997.38;4966686;28;45396;-85
2023/01/05 05:47:44;;;;;;;;;1.00;0.00;;;;;14.68;75.88;102033.34;4966546;28;45336;-85
2023/01/05 05:50:09;;;;;;;;;0.00;0.00;;;;;14.45;75.86;101994.56;4964843;28;45572;-85
2023/01/05 05:52:35;;;;;;;;;0.00;0.00;;;;;14.56;75.99;102026.50;4965631;28;45245;-85
2023/01/05 05:55:00;;;;;;;;;0.00;0.00;;;;;14.38;75.78;101997.47;4964733;28;45742;-84
2023/01/05 05:57:26;;;;;;;;;0.00;0.00;;;;;14.50;75.88;102012.34;4965319;28;45255;-84
2023/01/05 05:59:51;;;;;;;;;1.00;0.00;;;;;14.60;76.07;102036.28;4965313;28;45284;-84
2023/01/05 06:02:18;;;;;;;;;1.00;0.00;;;;;14.38;76.00;102009.13;4967162;28;44962;-84
2023/01/05 06:04:44;;;;;;;;;1.75;0.00;;;;;14.38;76.00;102010.91;4967630;28;45256;-85
2023/01/05 06:07:10;;;;;;;;;0.75;0.25;;;;;14.35;76.33;102003.81;4965970;28;46389;-84
2023/01/05 06:09:35;;;;;;;;;0.00;0.00;;;;;14.54;76.01;102047.16;4971546;28;45279;-84
2023/01/05 06:12:01;;;;;;;;;0.00;0.00;;;;;14.72;76.30;102072.69;4970825;28;45477;-84
2023/01/05 06:14:26;;;;;;;;;0.00;0.00;;;;;14.63;75.94;102057.69;4965304;28;45785;-85
2023/01/05 06:16:54;;;;;;;;;1.00;1.00;;;;;14.60;76.13;102059.56;4965054;28;47187;-84
2023/01/05 06:19:24;;;;;;;;;0.25;0.25;;;;;14.73;76.16;102079.78;4972321;28;45189;-84
2023/01/05 06:21:50;;;;;;;;;0.00;0.00;;;;;14.65;76.20;102065.72;4961671;28;45384;-84
2023/01/05 06:24:15;;;;;;;;;1.00;0.00;;;;;14.39;76.21;102024.28;4974960;28;45351;-84
2023/01/05 06:26:44;;;;;;;;;0.00;0.00;;;;;14.57;76.13;102055.16;4965960;28;47298;-85
2023/01/05 06:29:12;;;;;;;;;0.00;0.00;;;;;14.37;76.28;102028.84;4965349;28;45355;-85
2023/01/05 06:31:37;;;;;;;;;0.00;0.00;;;;;14.39;76.16;102040.41;4965621;28;45383;-84
2023/01/05 06:34:03;;;;;;;;;0.00;0.00;;;;;14.55;76.27;102061.47;4984087;28;45195;-85
2023/01/05 06:36:28;;;;;;;;;0.00;0.00;;;;;14.49;76.34;102048.22;4966162;28;45341;-85
2023/01/05 06:38:53;;;;;;;;;1.25;0.25;;;;;14.63;76.22;102072.91;4972303;28;44785;-85
2023/01/05 06:41:21;;;;;;;;;0.50;0.50;;;;;14.56;76.32;102058.75;4977341;28;45292;-84
2023/01/05 06:43:47;;;;;;;;;0.50;0.00;;;;;14.66;76.42;102080.03;4973995;28;45383;-85
2023/01/05 06:46:12;;;;;;;;;0.00;0.00;;;;;14.66;76.25;102085.41;4965977;28;47901;-85
2023/01/05 06:48:40;;;;;;;;;0.00;0.00;;;;;14.40;76.16;102036.81;4968113;28;45360;-84
2023/01/05 06:51:05;;;;;;;;;0.00;0.00;;;;;14.73;76.12;102090.53;4970319;28;45265;-85
2023/01/05 06:53:31;;;;;;;;;0.00;0.00;;;;;14.40;76.19;102036.81;4970299;28;45263;-84
2023/01/05 06:55:56;;;;;;;;;0.00;0.00;;;;;14.58;76.59;102066.75;4969950;28;46388;-85
2023/01/05 06:58:22;;;;;;;;;0.00;0.00;;;;;14.48;76.15;102046.47;4981428;28;45727;-84
2023/01/05 07:00:47;;;;;;;;;0.00;0.00;;;;;14.72;76.47;102086.13;4978260;28;45219;-85
2023/01/05 07:03:13;;;;;;;;;0.00;0.00;;;;;14.50;76.31;102050.88;4972122;28;45321;-85
2023/01/05 07:05:39;;;;;;;;;0.00;0.00;;;;;14.73;76.19;102081.59;4969110;28;46696;-85
2023/01/05 07:08:05;;;;;;;;;0.00;0.00;;;;;14.53;76.40;102047.22;4966772;28;45329;-85
2023/01/05 07:10:30;;;;;;;;;0.00;0.00;;;;;14.64;76.20;102072.00;4966766;28;45493;-84
2023/01/05 07:12:56;;;;;;;;;0.00;0.00;;;;;14.54;76.55;102046.28;4978744;28;45688;-84
2023/01/05 07:15:22;;;;;;;;;0.00;0.00;;;;;14.65;76.58;102071.09;4968022;28;46370;-84
2023/01/05 07:17:47;;;;;;;;;0.00;0.00;;;;;14.60;76.62;102068.53;4967327;28;45257;-85
2023/01/05 07:20:13;;;;;;;;;0.50;0.00;;;;;14.71;76.90;102089.72;4971321;28;45618;-85
2023/01/05 07:22:41;;;;;;;;;0.00;0.00;;;;;14.82;76.59;102102.88;4962627;28;45772;-83
2023/01/05 07:25:07;;;;;;;;;1.25;0.00;;;;;14.76;76.58;102093.16;4961089;28;45435;-84
2023/01/05 07:27:33;;;;;;;;;0.00;0.00;;;;;14.59;76.79;102063.19;4972740;28;45479;-84
2023/01/05 07:29:58;;;;;;;;;0.00;0.00;;;;;14.74;76.72;102095.00;4964295;28;45423;-82
2023/01/05 07:32:24;;;;;;;;;0.00;0.00;;;;;14.88;76.94;102112.56;4964459;28;45459;-84
2023/01/05 07:34:49;;;;;;;;;0.00;0.00;;;;;14.58;76.82;102056.91;4966643;28;46212;-83
2023/01/05 07:37:15;;;;;;;;;3.00;0.75;;;;;14.64;76.85;102072.88;4966450;28;45379;-83
2023/01/05 07:39:40;;;;;;;;;0.00;0.00;;;;;14.77;76.57;102086.00;4969466;28;45674;-83
2023/01/05 07:42:05;;;;;;;;;0.50;0.50;;;;;14.77;76.79;102086.00;4961165;28;45462;-83
2023/01/05 07:44:31;;;;;;;;;1.50;1.50;;;;;14.84;76.94;102097.44;4979287;28;47949;-83
2023/01/05 07:46:57;;;;;;;;;0.00;0.00;;;;;14.82;76.83;102098.34;4965401;28;45300;-83
2023/01/05 07:49:23;;;;;;;;;0.75;0.75;;;;;14.93;76.89;102124.94;4966903;28;45686;-83
2023/01/05 07:51:48;;;;;;;;;0.00;0.00;;;;;14.99;77.07;102119.38;4972956;28;45305;-83
2023/01/05 07:54:14;;;;;;;;;0.00;0.00;;;;;14.90;77.06;102108.00;5000476;28;46960;-83
2023/01/05 07:56:39;;;;;;;;;0.50;0.50;;;;;14.79;76.90;102090.38;4972701;28;45273;-83
2023/01/05 07:59:05;;;;;;;;;2.00;0.00;;;;;14.78;76.79;102091.31;4964061;28;45981;-83
2023/01/05 08:01:30;;;;;;;;;1.00;1.00;;;;;14.67;76.76;102066.56;4965863;28;45416;-83
2023/01/05 08:03:55;;;;;;;;;2.00;0.00;;;;;14.82;77.24;102093.00;4962765;28;48332;-83
2023/01/05 08:06:21;;;;;;;;;1.00;1.00;;;;;14.69;77.10;102063.81;4963642;28;45281;-83
2023/01/05 08:08:47;;;;;;;;;1.00;1.00;;;;;14.79;76.92;102092.19;4966808;28;45976;-82
2023/01/05 08:11:14;;;;;;;;;0.00;0.00;;;;;14.89;77.10;102103.56;4974350;28;45363;-83
2023/01/05 08:13:59;;;;;;;;;0.00;0.00;;;;;14.99;76.95;102118.50;4963986;28;46938;-83
2023/01/05 08:16:27;;;;;;;;;1.25;1.25;;;;;15.03;77.11;102120.16;4963493;28;44980;-89
2023/01/05 08:18:53;;;;;;;;;1.50;0.75;;;;;14.87;77.12;102100.03;4963743;28;45426;-84
2023/01/05 08:21:48;;;;;;;;;1.00;1.00;;;;;14.83;76.98;102093.84;4962524;28;45400;-86
2023/01/05 08:24:13;;;;;;;;;2.75;1.00;;;;;14.81;76.97;102103.78;4959920;28;45736;-85
2023/01/05 08:26:39;;;;;;;;;1.00;1.00;;;;;14.68;77.28;102078.16;4967115;28;45511;-85
2023/01/05 08:29:04;;;;;;;;;4.00;2.00;;;;;14.69;77.13;102086.19;4963455;28;45229;-85
2023/01/05 08:31:35;;;;;;;;;4.00;1.00;;;;;14.84;77.18;102108.19;4966934;28;45933;-85
2023/01/05 08:34:02;;;;;;;;;2.25;1.50;;;;;14.76;77.27;102100.34;4964202;28;47245;-85
2023/01/05 08:36:30;;;;;;;;;1.00;1.00;;;;;14.90;77.28;102124.13;4969739;28;45388;-85
2023/01/05 08:38:56;;;;;;;;;1.00;1.00;;;;;14.61;77.44;102081.03;4969618;28;45127;-85
2023/01/05 08:41:24;;;;;;;;;2.75;2.00;;;;;14.96;77.57;102130.22;4965565;28;45471;-85
2023/01/05 08:43:55;;;;;;;;;1.00;1.00;;;;;14.99;77.62;102138.19;4964363;28;45443;-85
2023/01/05 08:46:23;;;;;;;;;4.50;3.00;;;;;14.72;77.78;102096.00;4964787;28;44824;-85
2023/01/05 08:48:52;;;;;;;;;1.75;1.50;;;;;14.84;77.59;102109.06;4974027;28;45269;-85
2023/01/05 08:51:18;;;;;;;;;3.00;2.00;;;;;14.97;77.61;102136.50;4965753;28;44777;-85
2023/01/05 08:53:47;;;;;;;;;2.00;2.00;;;;;14.84;77.66;102105.50;4965315;28;46473;-86
2023/01/05 08:56:13;;;;;;;;;1.25;1.25;;;;;14.91;77.64;102116.03;4968735;28;45548;-86
2023/01/05 08:58:39;;;;;;;;;2.00;2.00;;;;;14.82;77.46;102092.13;4969522;28;45379;-80
2023/01/05 09:01:09;;;;;;;;;2.00;1.25;;;;;15.00;77.62;102129.22;4975157;28;45466;-80
2023/01/05 09:03:36;;;;;;;;;1.00;1.00;;;;;15.01;77.66;102124.72;5003940;28;47598;-80
2023/01/05 09:06:02;;;;;;;;;2.50;1.50;;;;;15.04;77.09;102129.13;4965443;28;45818;-80
2023/01/05 09:08:32;;;;;;;;;1.00;1.00;;;;;14.93;77.39;102110.59;4966269;28;45439;-81
2023/01/05 09:11:14;;;;;;;;;1.00;1.00;;;;;15.14;77.27;102144.06;4982573;28;45435;-81
2023/01/05 09:13:41;;;;;;;;;1.00;1.00;;;;;14.97;77.50;102118.56;4964431;28;47616;-81
2023/01/05 09:16:16;;;;;;;;;1.00;0.00;;;;;15.14;77.49;102136.00;4964950;28;45361;-80
2023/01/05 09:18:42;;;;;;;;;0.75;0.00;;;;;15.15;77.44;102132.38;4966790;28;45297;-81
2023/01/05 09:21:09;;;;;;;;;0.25;0.25;;;;;15.15;77.18;102135.97;4964972;28;45285;-81
2023/01/05 09:23:35;;;;;;;;;0.00;0.00;;;;;15.09;77.41;102125.38;4965902;28;46233;-80
2023/01/05 09:26:03;;;;;;;;;0.50;0.50;;;;;15.10;77.15;102129.84;4963254;28;45260;-81
2023/01/05 09:28:29;;;;;;;;;0.00;0.00;;;;;15.15;76.94;102132.38;4964735;28;45293;-81
2023/01/05 09:30:54;;;;;;;;;0.50;0.50;;;;;15.17;77.07;102142.19;4964735;28;45490;-81
2023/01/05 09:33:20;;;;;;;;;1.00;0.00;;;;;15.22;77.03;102143.84;4964635;28;47269;-81
2023/01/05 09:35:55;;;;;;;;;0.50;0.50;;;;;15.21;77.05;102140.28;4962897;28;45665;-81
2023/01/05 09:38:22;;;;;;;;;2.00;1.00;;;;;15.15;77.25;102135.97;4962314;28;45464;-80
2023/01/05 09:40:50;;;;;;;;;0.00;0.00;;;;;15.18;77.09;102143.94;4975955;28;46033;-80
2023/01/05 09:43:36;;;;;;;;;0.00;0.00;;;;;15.24;76.86;102144.69;4960508;28;47500;-80
2023/01/05 09:46:06;;;;;;;;;0.00;0.00;;;;;15.15;77.37;102141.34;4961513;28;45852;-81
2023/01/05 09:48:39;;;;;;;;;0.50;0.50;;;;;15.18;77.15;102152.03;4971726;28;45372;-81
2023/01/05 09:51:07;;;;;;;;;0.00;0.00;;;;;15.14;77.26;102136.00;4965852;28;45641;-81
2023/01/05 09:53:33;;;;;;;;;0.00;0.00;;;;;15.11;76.98;102133.41;4963141;28;46604;-81
2023/01/05 09:55:59;;;;;;;;;1.00;1.00;;;;;15.25;77.35;102154.50;4962683;28;45007;-81
2023/01/05 09:58:30;;;;;;;;;0.00;0.00;;;;;15.19;77.30;102143.00;4963704;28;45435;-81
2023/01/05 10:01:12;;;;;;;;;1.00;1.00;;;;;15.29;77.40;102158.88;4972717;28;45483;-81
2023/01/05 10:03:46;;;;;;;;;0.00;0.00;;;;;15.21;77.38;102139.41;4972601;28;46151;-80
2023/01/05 10:06:14;;;;;;;;;0.00;0.00;;;;;15.31;77.45;102160.59;4966806;28;45362;-80
2023/01/05 10:08:46;;;;;;;;;1.00;1.00;;;;;15.32;77.62;102161.50;4964728;28;45496;-81
2023/01/05 10:14:43;;;;;;;;;0.00;0.00;;;;;15.37;77.34;102170.31;4962986;28;45313;-81
2023/01/05 10:17:19;;;;;;;;;0.00;0.00;;;;;15.37;77.29;102171.19;4960950;28;45548;-77
2023/01/05 10:19:46;;;;;;;;;1.00;1.00;;;;;15.21;77.35;102151.03;4964746;28;45379;-83
2023/01/05 10:22:18;;;;;;;;;1.00;1.00;;;;;15.38;77.47;102170.25;4963762;28;45238;-83
2023/01/05 10:24:53;;;;;;;;;0.00;0.00;;;;;15.40;77.52;102166.63;4963805;28;45371;-82
2023/01/05 10:27:28;;;;;;;;;1.00;1.00;;;;;15.36;77.56;102161.31;4958092;28;45411;-83
2023/01/05 10:30:12;;;;;;;;;1.00;1.00;;;;;15.42;77.51;102165.66;4957969;28;45462;-87
2023/01/05 10:33:15;;;;;;;;;0.50;0.50;;;;;15.43;77.38;102169.22;4964863;28;45502;-85
2023/01/05 10:36:04;;;;;;;;;1.00;0.00;;;;;15.42;77.51;102170.13;4952356;28;47304;-85
2023/01/05 10:38:52;;;;;;;;;0.00;0.00;;;;;15.19;77.64;102120.63;4969032;28;45774;-85
2023/01/05 10:41:38;;;;;;;;;0.75;0.75;;;;;15.28;77.73;102141.84;4975615;28;45517;-85
2023/01/05 10:44:22;;;;;;;;;0.50;0.50;;;;;15.42;77.79;102160.28;5002981;28;46148;-85
2023/01/05 10:46:48;;;;;;;;;0.00;0.00;;;;;15.09;77.79;102108.38;4957375;28;45508;-85
2023/01/05 10:49:25;;;;;;;;;0.00;0.00;;;;;15.08;77.89;102096.72;4984630;28;46101;-85
2023/01/05 10:51:51;;;;;;;;;0.00;0.00;;;;;15.28;77.73;102131.09;4964953;28;45232;-85
2023/01/05 10:54:36;;;;;;;;;0.00;0.00;;;;;15.27;77.61;102128.44;4964658;28;45027;-86
2023/01/05 10:57:31;;;;;;;;;0.00;0.00;;;;;15.45;77.86;102144.06;4962251;28;48153;-86
2023/01/05 11:00:14;;;;;;;;;0.00;0.00;;;;;15.36;77.52;102129.03;4959478;28;45583;-86
2023/01/05 11:02:47;;;;;;;;;0.25;0.25;;;;;15.16;77.67;102083.03;4960857;28;45519;-85
2023/01/05 11:05:20;;;;;;;;;2.00;0.00;;;;;15.51;77.69;102135.75;4963079;28;45392;-85
2023/01/05 11:07:52;;;;;;;;;0.00;0.00;;;;;15.17;77.73;102079.44;4965595;28;47271;-86
2023/01/05 11:10:30;;;;;;;;;0.00;0.00;;;;;15.54;77.53;102133.00;4961995;28;45333;-86
2023/01/05 11:13:17;;;;;;;;;1.00;1.00;;;;;15.16;77.46;102053.47;4970530;28;45269;-86
2023/01/05 11:15:58;;;;;;;;;0.00;0.00;;;;;15.50;77.66;102114.28;4970048;28;45297;-86
2023/01/05 11:18:40;;;;;;;;;0.00;0.00;;;;;15.45;77.74;102087.53;4969288;28;46218;-85
2023/01/05 11:21:27;;;;;;;;;0.00;0.00;;;;;15.21;77.63;102040.75;4964877;28;45416;-85
2023/01/05 11:23:55;;;;;;;;;1.00;0.00;;;;;15.46;77.64;102081.22;4965707;28;45447;-82
2023/01/05 11:26:27;;;;;;;;;0.00;0.00;;;;;15.64;77.60;102108.50;4963101;28;45316;-82
2023/01/05 11:28:55;;;;;;;;;0.00;0.00;;;;;15.64;77.48;102103.97;4971875;28;45360;-82
2023/01/05 11:31:21;;;;;;;;;0.75;0.00;;;;;15.57;77.49;102092.53;4963923;28;45455;-82
2023/01/05 11:33:55;;;;;;;;;0.75;0.75;;;;;15.57;77.80;102091.66;4968911;28;45428;-82
2023/01/05 11:36:20;;;;;;;;;1.75;1.00;;;;;15.50;77.65;102074.81;4964749;28;45820;-81
2023/01/05 11:38:52;;;;;;;;;2.00;0.75;;;;;15.52;77.83;102074.78;4965975;28;45449;-82
2023/01/05 11:41:21;;;;;;;;;0.25;0.25;;;;;15.45;77.77;102062.41;4963545;28;45825;-82
2023/01/05 11:43:48;;;;;;;;;1.75;1.00;;;;;15.68;77.76;102104.75;4964149;28;45286;-82
2023/01/05 11:46:14;;;;;;;;;1.00;1.00;;;;;15.41;77.83;102055.41;4968604;28;46146;-82
2023/01/05 11:48:50;;;;;;;;;0.25;0.25;;;;;15.62;78.00;102087.00;4966502;28;47549;-81
2023/01/05 11:51:34;;;;;;;;;0.00;0.00;;;;;15.66;77.94;102085.97;4965041;28;45509;-82
2023/01/05 11:53:59;;;;;;;;;3.00;1.00;;;;;15.63;78.05;102093.25;4973965;28;45529;-81
2023/01/05 11:56:26;;;;;;;;;2.00;1.00;;;;;15.67;78.03;102092.22;4972486;28;45685;-81
2023/01/05 11:58:56;;;;;;;;;0.50;0.50;;;;;15.49;77.91;102051.53;4972118;28;47541;-81
2023/01/05 12:01:57;;;;;;;;;1.50;1.50;;;;;15.69;77.78;102088.56;4970784;28;45069;-81
2023/01/05 12:04:54;;;;;;;;;2.00;2.00;;;;;15.64;77.87;102063.59;4970314;28;45703;-81
2023/01/05 12:07:33;;;;;;;;;2.00;0.00;;;;;15.73;77.69;102086.63;4971816;28;45235;-81
2023/01/05 12:10:23;;;;;;;;;1.00;1.00;;;;;15.64;77.91;102062.72;4998938;28;48636;-82